sensor_id;sensor_type;location;lat;lon;timestamp;temperature;humidity
8611;DHT22;4343;53.648;10.098;2023-07-08T00:00:12;17.20;99.90
8611;DHT22;4343;53.648;10.098;2023-07-08T00:02:39;17.20;99.90
8611;DHT22;4343;53.648;10.098;2023-07-08T00:05:05;17.20;99.90
8611;DHT22;4343;53.648;10.098;2023-07-08T00:07:31;17.20;99.90
8611;DHT22;4343;53.648;10.098;2023-07-08T00:09:56;17.10;99.90
8611;DHT22;4343;53.648;10.098;2023-07-08T00:12:22;17.00;99.90
8611;DHT22;4343;53.648;10.098;2023-07-08T00:14:47;17.00;99.90
8611;DHT22;4343;53.648;10.098;2023-07-08T00:17:13;17.00;99.90
8611;DHT22;4343;53.648;10.098;2023-07-08T00:19:39;17.00;99.90
8611;DHT22;4343;53.648;10.098;2023-07-08T00:22:12;16.90;99.90
8611;DHT22;4343;53.648;10.098;2023-07-08T00:24:39;16.90;99.90
8611;DHT22;4343;53.648;10.098;2023-07-08T00:27:07;16.80;99.90
8611;DHT22;4343;53.648;10.098;2023-07-08T00:29:33;16.80;99.90
8611;DHT22;4343;53.648;10.098;2023-07-08T00:31:58;16.80;99.90
8611;DHT22;4343;53.648;10.098;2023-07-08T00:34:24;16.80;99.90
8611;DHT22;4343;53.648;10.098;2023-07-08T00:36:49;16.70;99.90
8611;DHT22;4343;53.648;10.098;2023-07-08T00:39:15;16.70;99.90
8611;DHT22;4343;53.648;10.098;2023-07-08T00:41:42;16.60;99.90
8611;DHT22;4343;53.648;10.098;2023-07-08T00:44:11;16.60;99.90
8611;DHT22;4343;53.648;10.098;2023-07-08T00:47:04;16.60;99.90
8611;DHT22;4343;53.648;10.098;2023-07-08T00:49:38;16.50;99.90
8611;DHT22;4343;53.648;10.098;2023-07-08T00:52:28;16.50;99.90
8611;DHT22;4343;53.648;10.098;2023-07-08T00:54:56;16.50;99.90
8611;DHT22;4343;53.648;10.098;2023-07-08T00:57:24;16.40;99.90
8611;DHT22;4343;53.648;10.098;2023-07-08T01:00:02;16.40;99.90
8611;DHT22;4343;53.648;10.098;2023-07-08T01:02:31;16.40;99.90
8611;DHT22;4343;53.648;10.098;2023-07-08T01:05:05;16.30;99.90
8611;DHT22;4343;53.648;10.098;2023-07-08T01:07:33;16.30;99.90
8611;DHT22;4343;53.648;10.098;2023-07-08T01:10:03;16.30;99.90
8611;DHT22;4343;53.648;10.098;2023-07-08T01:12:35;16.20;99.90
8611;DHT22;4343;53.648;10.098;2023-07-08T01:15:03;16.20;99.90
8611;DHT22;4343;53.648;10.098;2023-07-08T01:17:29;16.20;99.90
8611;DHT22;4343;53.648;10.098;2023-07-08T01:19:58;16.20;99.90
8611;DHT22;4343;53.648;10.098;2023-07-08T01:22:24;16.10;99.90
8611;DHT22;4343;53.648;10.098;2023-07-08T01:24:50;16.00;99.90
8611;DHT22;4343;53.648;10.098;2023-07-08T01:27:18;16.10;99.90
8611;DHT22;4343;53.648;10.098;2023-07-08T01:29:45;16.00;99.90
8611;DHT22;4343;53.648;10.098;2023-07-08T01:32:13;16.00;99.90
8611;DHT22;4343;53.648;10.098;2023-07-08T01:34:44;16.00;99.90
8611;DHT22;4343;53.648;10.098;2023-07-08T01:37:30;15.90;99.90
8611;DHT22;4343;53.648;10.098;2023-07-08T01:39:56;15.90;99.90
8611;DHT22;4343;53.648;10.098;2023-07-08T01:42:22;15.90;99.90
8611;DHT22;4343;53.648;10.098;2023-07-08T01:44:49;15.90;99.90
8611;DHT22;4343;53.648;10.098;2023-07-08T01:47:17;15.90;99.90
8611;DHT22;4343;53.648;10.098;2023-07-08T01:49:45;15.80;99.90
8611;DHT22;4343;53.648;10.098;2023-07-08T01:52:13;15.80;99.90
8611;DHT22;4343;53.648;10.098;2023-07-08T01:54:40;15.80;99.90
8611;DHT22;4343;53.648;10.098;2023-07-08T01:57:05;15.70;99.90
8611;DHT22;4343;53.648;10.098;2023-07-08T01:59:31;15.70;99.90
8611;DHT22;4343;53.648;10.098;2023-07-08T02:01:57;15.70;99.90
8611;DHT22;4343;53.648;10.098;2023-07-08T02:04:23;15.70;99.90
8611;DHT22;4343;53.648;10.098;2023-07-08T02:06:59;15.60;99.90
8611;DHT22;4343;53.648;10.098;2023-07-08T02:09:25;15.70;99.90
8611;DHT22;4343;53.648;10.098;2023-07-08T02:11:54;15.60;99.90
8611;DHT22;4343;53.648;10.098;2023-07-08T02:14:20;15.60;99.90
8611;DHT22;4343;53.648;10.098;2023-07-08T02:16:45;15.50;99.90
8611;DHT22;4343;53.648;10.098;2023-07-08T02:19:11;15.50;99.90
8611;DHT22;4343;53.648;10.098;2023-07-08T02:21:37;15.50;99.90
8611;DHT22;4343;53.648;10.098;2023-07-08T02:24:04;15.50;99.90
8611;DHT22;4343;53.648;10.098;2023-07-08T02:26:29;15.50;99.90
8611;DHT22;4343;53.648;10.098;2023-07-08T02:28:57;15.50;99.90
8611;DHT22;4343;53.648;10.098;2023-07-08T02:31:23;15.40;99.90
8611;DHT22;4343;53.648;10.098;2023-07-08T02:33:50;15.40;99.90
8611;DHT22;4343;53.648;10.098;2023-07-08T02:36:15;15.40;99.90
8611;DHT22;4343;53.648;10.098;2023-07-08T02:38:41;15.30;99.90
8611;DHT22;4343;53.648;10.098;2023-07-08T02:41:07;15.30;99.90
8611;DHT22;4343;53.648;10.098;2023-07-08T02:43:32;15.30;99.90
8611;DHT22;4343;53.648;10.098;2023-07-08T02:45:58;15.20;99.90
8611;DHT22;4343;53.648;10.098;2023-07-08T02:48:23;15.20;99.90
8611;DHT22;4343;53.648;10.098;2023-07-08T02:50:49;15.20;99.90
8611;DHT22;4343;53.648;10.098;2023-07-08T02:53:14;15.20;99.90
8611;DHT22;4343;53.648;10.098;2023-07-08T02:55:40;15.20;99.90
8611;DHT22;4343;53.648;10.098;2023-07-08T02:58:09;15.10;99.90
8611;DHT22;4343;53.648;10.098;2023-07-08T03:00:35;15.10;99.90
8611;DHT22;4343;53.648;10.098;2023-07-08T03:03:03;15.10;99.90
8611;DHT22;4343;53.648;10.098;2023-07-08T03:05:29;15.10;99.90
8611;DHT22;4343;53.648;10.098;2023-07-08T03:07:54;15.00;99.90
8611;DHT22;4343;53.648;10.098;2023-07-08T03:10:20;15.10;99.90
8611;DHT22;4343;53.648;10.098;2023-07-08T03:12:45;15.00;99.90
8611;DHT22;4343;53.648;10.098;2023-07-08T03:15:10;15.00;99.90
8611;DHT22;4343;53.648;10.098;2023-07-08T03:17:36;15.00;99.90
8611;DHT22;4343;53.648;10.098;2023-07-08T03:20:01;15.00;99.90
8611;DHT22;4343;53.648;10.098;2023-07-08T03:22:30;15.00;99.90
8611;DHT22;4343;53.648;10.098;2023-07-08T03:24:55;15.00;99.90
8611;DHT22;4343;53.648;10.098;2023-07-08T03:27:21;15.00;99.90
8611;DHT22;4343;53.648;10.098;2023-07-08T03:29:46;14.90;99.90
8611;DHT22;4343;53.648;10.098;2023-07-08T03:32:12;14.90;99.90
8611;DHT22;4343;53.648;10.098;2023-07-08T03:34:38;14.90;99.90
8611;DHT22;4343;53.648;10.098;2023-07-08T03:37:04;14.90;99.90
8611;DHT22;4343;53.648;10.098;2023-07-08T03:39:30;14.90;99.90
8611;DHT22;4343;53.648;10.098;2023-07-08T03:41:57;14.90;99.90
8611;DHT22;4343;53.648;10.098;2023-07-08T03:44:23;14.90;99.90
8611;DHT22;4343;53.648;10.098;2023-07-08T03:46:49;14.90;99.90
8611;DHT22;4343;53.648;10.098;2023-07-08T03:49:15;14.90;99.90
8611;DHT22;4343;53.648;10.098;2023-07-08T03:51:41;14.90;99.90
8611;DHT22;4343;53.648;10.098;2023-07-08T03:54:11;14.90;99.90
8611;DHT22;4343;53.648;10.098;2023-07-08T03:56:37;14.90;99.90
8611;DHT22;4343;53.648;10.098;2023-07-08T03:59:02;14.90;99.90
8611;DHT22;4343;53.648;10.098;2023-07-08T04:01:28;14.90;99.90
8611;DHT22;4343;53.648;10.098;2023-07-08T04:03:56;14.90;99.90
8611;DHT22;4343;53.648;10.098;2023-07-08T04:06:22;14.90;99.90
8611;DHT22;4343;53.648;10.098;2023-07-08T04:08:49;14.90;99.90
8611;DHT22;4343;53.648;10.098;2023-07-08T04:11:16;14.90;99.90
8611;DHT22;4343;53.648;10.098;2023-07-08T04:13:42;14.90;99.90
8611;DHT22;4343;53.648;10.098;2023-07-08T04:16:22;15.00;99.90
8611;DHT22;4343;53.648;10.098;2023-07-08T04:18:49;14.90;99.90
8611;DHT22;4343;53.648;10.098;2023-07-08T04:21:16;15.00;99.90
8611;DHT22;4343;53.648;10.098;2023-07-08T04:23:42;15.00;99.90
8611;DHT22;4343;53.648;10.098;2023-07-08T04:26:08;15.00;99.90
8611;DHT22;4343;53.648;10.098;2023-07-08T04:28:35;15.00;99.90
8611;DHT22;4343;53.648;10.098;2023-07-08T04:31:01;15.00;99.90
8611;DHT22;4343;53.648;10.098;2023-07-08T04:33:27;15.00;99.90
8611;DHT22;4343;53.648;10.098;2023-07-08T04:35:53;15.00;99.90
8611;DHT22;4343;53.648;10.098;2023-07-08T04:38:22;15.10;99.90
8611;DHT22;4343;53.648;10.098;2023-07-08T04:40:48;15.10;99.90
8611;DHT22;4343;53.648;10.098;2023-07-08T04:43:14;15.10;99.90
8611;DHT22;4343;53.648;10.098;2023-07-08T04:45:42;15.10;99.90
8611;DHT22;4343;53.648;10.098;2023-07-08T04:48:16;15.20;99.90
8611;DHT22;4343;53.648;10.098;2023-07-08T04:50:43;15.20;99.90
8611;DHT22;4343;53.648;10.098;2023-07-08T04:53:09;15.20;99.90
8611;DHT22;4343;53.648;10.098;2023-07-08T04:55:36;15.20;99.90
8611;DHT22;4343;53.648;10.098;2023-07-08T04:58:03;15.20;99.90
8611;DHT22;4343;53.648;10.098;2023-07-08T05:00:29;15.30;99.90
8611;DHT22;4343;53.648;10.098;2023-07-08T05:02:54;15.40;99.90
8611;DHT22;4343;53.648;10.098;2023-07-08T05:05:20;15.40;99.90
8611;DHT22;4343;53.648;10.098;2023-07-08T05:07:46;15.40;99.90
8611;DHT22;4343;53.648;10.098;2023-07-08T05:10:12;15.50;99.90
8611;DHT22;4343;53.648;10.098;2023-07-08T05:12:37;15.60;99.90
8611;DHT22;4343;53.648;10.098;2023-07-08T05:15:03;15.60;99.90
8611;DHT22;4343;53.648;10.098;2023-07-08T05:17:29;15.70;99.90
8611;DHT22;4343;53.648;10.098;2023-07-08T05:19:55;15.80;99.90
8611;DHT22;4343;53.648;10.098;2023-07-08T05:22:23;15.90;99.90
8611;DHT22;4343;53.648;10.098;2023-07-08T05:24:51;16.00;99.90
8611;DHT22;4343;53.648;10.098;2023-07-08T05:27:18;16.20;99.90
8611;DHT22;4343;53.648;10.098;2023-07-08T05:29:46;16.30;99.90
8611;DHT22;4343;53.648;10.098;2023-07-08T05:32:11;16.40;99.90
8611;DHT22;4343;53.648;10.098;2023-07-08T05:34:37;16.60;99.90
8611;DHT22;4343;53.648;10.098;2023-07-08T05:37:02;16.70;99.90
8611;DHT22;4343;53.648;10.098;2023-07-08T05:39:32;16.90;99.90
8611;DHT22;4343;53.648;10.098;2023-07-08T05:41:58;17.10;99.90
8611;DHT22;4343;53.648;10.098;2023-07-08T05:44:24;17.30;99.90
8611;DHT22;4343;53.648;10.098;2023-07-08T05:46:50;17.50;99.90
8611;DHT22;4343;53.648;10.098;2023-07-08T05:49:16;17.70;99.90
8611;DHT22;4343;53.648;10.098;2023-07-08T05:51:43;17.80;99.90
8611;DHT22;4343;53.648;10.098;2023-07-08T05:54:09;18.00;99.90
8611;DHT22;4343;53.648;10.098;2023-07-08T05:56:35;18.20;99.90
8611;DHT22;4343;53.648;10.098;2023-07-08T05:59:00;18.40;99.90
8611;DHT22;4343;53.648;10.098;2023-07-08T06:01:26;18.50;99.90
8611;DHT22;4343;53.648;10.098;2023-07-08T06:03:51;18.70;99.90
8611;DHT22;4343;53.648;10.098;2023-07-08T06:06:17;18.90;99.90
8611;DHT22;4343;53.648;10.098;2023-07-08T06:08:43;19.10;99.90
8611;DHT22;4343;53.648;10.098;2023-07-08T06:11:09;19.30;99.90
8611;DHT22;4343;53.648;10.098;2023-07-08T06:13:34;19.50;99.90
8611;DHT22;4343;53.648;10.098;2023-07-08T06:16:00;19.60;99.90
8611;DHT22;4343;53.648;10.098;2023-07-08T06:18:25;19.80;99.90
8611;DHT22;4343;53.648;10.098;2023-07-08T06:20:55;20.00;99.90
8611;DHT22;4343;53.648;10.098;2023-07-08T06:23:21;20.30;99.90
8611;DHT22;4343;53.648;10.098;2023-07-08T06:25:47;20.50;99.90
8611;DHT22;4343;53.648;10.098;2023-07-08T06:28:13;20.70;99.90
8611;DHT22;4343;53.648;10.098;2023-07-08T06:30:38;20.90;99.90
8611;DHT22;4343;53.648;10.098;2023-07-08T06:33:04;21.10;99.90
8611;DHT22;4343;53.648;10.098;2023-07-08T06:35:30;21.40;99.90
8611;DHT22;4343;53.648;10.098;2023-07-08T06:37:56;21.50;99.90
8611;DHT22;4343;53.648;10.098;2023-07-08T06:40:21;21.70;99.90
8611;DHT22;4343;53.648;10.098;2023-07-08T06:42:47;21.90;99.90
8611;DHT22;4343;53.648;10.098;2023-07-08T06:45:13;22.10;99.90
8611;DHT22;4343;53.648;10.098;2023-07-08T06:47:38;22.20;99.90
8611;DHT22;4343;53.648;10.098;2023-07-08T06:50:04;22.40;99.90
8611;DHT22;4343;53.648;10.098;2023-07-08T06:52:30;22.50;99.90
8611;DHT22;4343;53.648;10.098;2023-07-08T06:55:02;22.70;99.90
8611;DHT22;4343;53.648;10.098;2023-07-08T06:57:28;22.80;99.90
8611;DHT22;4343;53.648;10.098;2023-07-08T06:59:53;23.00;99.90
8611;DHT22;4343;53.648;10.098;2023-07-08T07:02:19;23.10;99.90
8611;DHT22;4343;53.648;10.098;2023-07-08T07:04:45;23.20;99.90
8611;DHT22;4343;53.648;10.098;2023-07-08T07:07:11;23.30;99.90
8611;DHT22;4343;53.648;10.098;2023-07-08T07:09:37;23.40;99.90
8611;DHT22;4343;53.648;10.098;2023-07-08T07:12:02;23.50;99.90
8611;DHT22;4343;53.648;10.098;2023-07-08T07:14:28;23.60;99.90
8611;DHT22;4343;53.648;10.098;2023-07-08T07:16:54;23.60;99.90
8611;DHT22;4343;53.648;10.098;2023-07-08T07:19:19;23.70;99.90
8611;DHT22;4343;53.648;10.098;2023-07-08T07:21:46;23.80;99.90
8611;DHT22;4343;53.648;10.098;2023-07-08T07:24:12;23.90;99.90
8611;DHT22;4343;53.648;10.098;2023-07-08T07:26:38;24.00;99.90
8611;DHT22;4343;53.648;10.098;2023-07-08T07:29:03;24.10;99.90
8611;DHT22;4343;53.648;10.098;2023-07-08T07:31:29;24.20;99.90
8611;DHT22;4343;53.648;10.098;2023-07-08T07:33:56;24.30;99.90
8611;DHT22;4343;53.648;10.098;2023-07-08T07:36:21;24.40;99.90
8611;DHT22;4343;53.648;10.098;2023-07-08T07:38:46;24.50;99.90
8611;DHT22;4343;53.648;10.098;2023-07-08T07:41:12;24.50;99.90
8611;DHT22;4343;53.648;10.098;2023-07-08T07:43:38;24.60;99.90
8611;DHT22;4343;53.648;10.098;2023-07-08T07:46:04;24.60;99.90
8611;DHT22;4343;53.648;10.098;2023-07-08T07:48:31;24.60;99.90
8611;DHT22;4343;53.648;10.098;2023-07-08T07:50:57;24.70;99.90
8611;DHT22;4343;53.648;10.098;2023-07-08T07:53:23;24.80;99.90
8611;DHT22;4343;53.648;10.098;2023-07-08T07:55:56;24.90;99.90
8611;DHT22;4343;53.648;10.098;2023-07-08T07:58:22;24.90;99.90
8611;DHT22;4343;53.648;10.098;2023-07-08T08:00:47;25.00;99.90
8611;DHT22;4343;53.648;10.098;2023-07-08T08:03:13;25.10;99.90
8611;DHT22;4343;53.648;10.098;2023-07-08T08:05:38;25.10;99.90
8611;DHT22;4343;53.648;10.098;2023-07-08T08:08:03;25.20;99.90
8611;DHT22;4343;53.648;10.098;2023-07-08T08:10:30;25.20;99.90
8611;DHT22;4343;53.648;10.098;2023-07-08T08:12:56;25.30;99.90
8611;DHT22;4343;53.648;10.098;2023-07-08T08:15:22;25.40;99.90
8611;DHT22;4343;53.648;10.098;2023-07-08T08:17:47;25.40;99.90
8611;DHT22;4343;53.648;10.098;2023-07-08T08:20:14;25.50;99.90
8611;DHT22;4343;53.648;10.098;2023-07-08T08:22:40;25.70;99.90
8611;DHT22;4343;53.648;10.098;2023-07-08T08:25:05;25.80;99.90
8611;DHT22;4343;53.648;10.098;2023-07-08T08:27:31;25.90;99.90
8611;DHT22;4343;53.648;10.098;2023-07-08T08:29:57;26.10;99.90
8611;DHT22;4343;53.648;10.098;2023-07-08T08:32:22;26.20;99.90
8611;DHT22;4343;53.648;10.098;2023-07-08T08:34:48;26.30;99.90
8611;DHT22;4343;53.648;10.098;2023-07-08T08:37:14;26.40;99.90
8611;DHT22;4343;53.648;10.098;2023-07-08T08:39:39;26.60;99.90
8611;DHT22;4343;53.648;10.098;2023-07-08T08:42:24;26.70;99.90
8611;DHT22;4343;53.648;10.098;2023-07-08T08:44:50;26.90;99.90
8611;DHT22;4343;53.648;10.098;2023-07-08T08:47:43;27.00;99.90
8611;DHT22;4343;53.648;10.098;2023-07-08T08:52:44;27.20;99.60
8611;DHT22;4343;53.648;10.098;2023-07-08T08:55:13;27.30;99.50
8611;DHT22;4343;53.648;10.098;2023-07-08T09:03:35;27.60;99.30
8611;DHT22;4343;53.648;10.098;2023-07-08T09:06:12;27.70;98.90
8611;DHT22;4343;53.648;10.098;2023-07-08T09:08:39;27.80;98.70
8611;DHT22;4343;53.648;10.098;2023-07-08T09:11:37;27.80;98.70
8611;DHT22;4343;53.648;10.098;2023-07-08T09:14:06;27.90;98.80
8611;DHT22;4343;53.648;10.098;2023-07-08T09:22:48;28.40;98.40
8611;DHT22;4343;53.648;10.098;2023-07-08T09:25:21;28.50;98.20
8611;DHT22;4343;53.648;10.098;2023-07-08T09:27:49;28.60;96.40
8611;DHT22;4343;53.648;10.098;2023-07-08T09:30:16;28.60;96.50
8611;DHT22;4343;53.648;10.098;2023-07-08T09:32:42;28.60;96.40
8611;DHT22;4343;53.648;10.098;2023-07-08T09:35:09;28.60;96.10
8611;DHT22;4343;53.648;10.098;2023-07-08T09:37:45;28.70;95.90
8611;DHT22;4343;53.648;10.098;2023-07-08T09:40:30;28.70;95.80
8611;DHT22;4343;53.648;10.098;2023-07-08T09:43:16;28.70;95.80
8611;DHT22;4343;53.648;10.098;2023-07-08T09:45:48;28.80;95.70
8611;DHT22;4343;53.648;10.098;2023-07-08T09:48:27;28.80;95.20
8611;DHT22;4343;53.648;10.098;2023-07-08T09:50:54;28.80;95.20
8611;DHT22;4343;53.648;10.098;2023-07-08T09:53:21;28.80;95.40
8611;DHT22;4343;53.648;10.098;2023-07-08T09:55:47;28.90;95.30
8611;DHT22;4343;53.648;10.098;2023-07-08T09:58:35;29.00;95.10
8611;DHT22;4343;53.648;10.098;2023-07-08T10:01:15;29.00;94.80
8611;DHT22;4343;53.648;10.098;2023-07-08T10:03:42;29.20;95.30
8611;DHT22;4343;53.648;10.098;2023-07-08T10:06:25;29.30;95.60
8611;DHT22;4343;53.648;10.098;2023-07-08T10:08:54;29.40;94.90
8611;DHT22;4343;53.648;10.098;2023-07-08T10:11:30;29.50;95.00
8611;DHT22;4343;53.648;10.098;2023-07-08T10:14:36;29.60;95.00
8611;DHT22;4343;53.648;10.098;2023-07-08T10:17:03;29.80;94.70
8611;DHT22;4343;53.648;10.098;2023-07-08T10:19:29;29.90;94.40
8611;DHT22;4343;53.648;10.098;2023-07-08T10:33:09;30.40;93.70
8611;DHT22;4343;53.648;10.098;2023-07-08T10:35:49;30.50;94.00
8611;DHT22;4343;53.648;10.098;2023-07-08T10:41:58;30.70;93.40
8611;DHT22;4343;53.648;10.098;2023-07-08T10:44:58;30.80;93.00
8611;DHT22;4343;53.648;10.098;2023-07-08T11:04:47;31.30;91.60
8611;DHT22;4343;53.648;10.098;2023-07-08T11:09:55;31.40;92.10
8611;DHT22;4343;53.648;10.098;2023-07-08T11:12:40;31.40;91.60
8611;DHT22;4343;53.648;10.098;2023-07-08T11:21:03;31.70;92.20
8611;DHT22;4343;53.648;10.098;2023-07-08T11:23:43;31.80;92.00
8611;DHT22;4343;53.648;10.098;2023-07-08T11:26:23;31.90;91.80
8611;DHT22;4343;53.648;10.098;2023-07-08T11:28:53;32.00;91.70
8611;DHT22;4343;53.648;10.098;2023-07-08T11:31:20;32.10;90.80
8611;DHT22;4343;53.648;10.098;2023-07-08T11:33:48;32.10;90.30
8611;DHT22;4343;53.648;10.098;2023-07-08T11:36:14;32.20;90.20
8611;DHT22;4343;53.648;10.098;2023-07-08T11:38:54;32.20;88.70
8611;DHT22;4343;53.648;10.098;2023-07-08T11:41:22;32.30;89.90
8611;DHT22;4343;53.648;10.098;2023-07-08T11:43:53;32.30;90.20
8611;DHT22;4343;53.648;10.098;2023-07-08T11:46:26;32.30;89.90
8611;DHT22;4343;53.648;10.098;2023-07-08T11:48:56;32.40;90.10
8611;DHT22;4343;53.648;10.098;2023-07-08T11:51:35;32.40;89.50
8611;DHT22;4343;53.648;10.098;2023-07-08T11:57:07;32.60;90.10
8611;DHT22;4343;53.648;10.098;2023-07-08T11:59:39;32.60;88.40
8611;DHT22;4343;53.648;10.098;2023-07-08T12:02:16;32.80;87.60
8611;DHT22;4343;53.648;10.098;2023-07-08T12:04:59;32.80;85.50
8611;DHT22;4343;53.648;10.098;2023-07-08T12:07:31;32.80;86.00
8611;DHT22;4343;53.648;10.098;2023-07-08T12:10:05;32.90;86.30
8611;DHT22;4343;53.648;10.098;2023-07-08T12:12:35;33.00;86.60
8611;DHT22;4343;53.648;10.098;2023-07-08T12:15:23;33.10;86.10
8611;DHT22;4343;53.648;10.098;2023-07-08T12:17:55;33.20;85.60
8611;DHT22;4343;53.648;10.098;2023-07-08T12:20:22;33.40;84.50
8611;DHT22;4343;53.648;10.098;2023-07-08T12:22:49;33.40;84.10
8611;DHT22;4343;53.648;10.098;2023-07-08T12:25:18;33.60;84.00
8611;DHT22;4343;53.648;10.098;2023-07-08T12:27:45;33.60;82.60
8611;DHT22;4343;53.648;10.098;2023-07-08T12:30:12;33.60;80.60
8611;DHT22;4343;53.648;10.098;2023-07-08T12:32:39;33.80;80.40
8611;DHT22;4343;53.648;10.098;2023-07-08T12:35:31;33.80;80.90
8611;DHT22;4343;53.648;10.098;2023-07-08T12:38:03;33.90;80.60
8611;DHT22;4343;53.648;10.098;2023-07-08T12:40:30;33.90;79.40
8611;DHT22;4343;53.648;10.098;2023-07-08T12:42:57;33.90;79.40
8611;DHT22;4343;53.648;10.098;2023-07-08T12:45:26;33.90;77.90
8611;DHT22;4343;53.648;10.098;2023-07-08T12:47:52;34.00;78.10
8611;DHT22;4343;53.648;10.098;2023-07-08T12:50:17;34.00;77.50
8611;DHT22;4343;53.648;10.098;2023-07-08T12:52:47;34.10;78.30
8611;DHT22;4343;53.648;10.098;2023-07-08T12:55:14;34.20;79.50
8611;DHT22;4343;53.648;10.098;2023-07-08T12:57:42;34.40;78.50
8611;DHT22;4343;53.648;10.098;2023-07-08T13:00:16;34.60;78.10
8611;DHT22;4343;53.648;10.098;2023-07-08T13:02:45;34.70;78.80
8611;DHT22;4343;53.648;10.098;2023-07-08T13:05:13;34.80;78.00
8611;DHT22;4343;53.648;10.098;2023-07-08T13:07:41;34.90;77.00
8611;DHT22;4343;53.648;10.098;2023-07-08T13:10:16;35.00;76.90
8611;DHT22;4343;53.648;10.098;2023-07-08T13:12:43;35.00;76.70
8611;DHT22;4343;53.648;10.098;2023-07-08T13:15:20;35.10;76.90
8611;DHT22;4343;53.648;10.098;2023-07-08T13:17:47;35.10;75.20
8611;DHT22;4343;53.648;10.098;2023-07-08T13:20:14;35.30;75.20
8611;DHT22;4343;53.648;10.098;2023-07-08T13:22:41;35.30;74.90
8611;DHT22;4343;53.648;10.098;2023-07-08T13:25:15;35.30;74.90
8611;DHT22;4343;53.648;10.098;2023-07-08T13:27:41;35.40;75.10
8611;DHT22;4343;53.648;10.098;2023-07-08T13:30:21;35.50;75.00
8611;DHT22;4343;53.648;10.098;2023-07-08T13:32:52;35.60;73.30
8611;DHT22;4343;53.648;10.098;2023-07-08T13:35:36;35.60;73.40
8611;DHT22;4343;53.648;10.098;2023-07-08T13:38:02;35.60;72.50
8611;DHT22;4343;53.648;10.098;2023-07-08T13:40:28;35.60;72.30
8611;DHT22;4343;53.648;10.098;2023-07-08T13:42:54;35.50;71.70
8611;DHT22;4343;53.648;10.098;2023-07-08T13:45:26;35.60;71.80
8611;DHT22;4343;53.648;10.098;2023-07-08T13:48:46;35.60;71.80
8611;DHT22;4343;53.648;10.098;2023-07-08T13:51:11;35.70;72.10
8611;DHT22;4343;53.648;10.098;2023-07-08T13:56:21;35.90;71.90
8611;DHT22;4343;53.648;10.098;2023-07-08T13:58:50;36.00;70.60
8611;DHT22;4343;53.648;10.098;2023-07-08T14:01:23;36.00;69.70
8611;DHT22;4343;53.648;10.098;2023-07-08T14:03:51;36.00;70.40
8611;DHT22;4343;53.648;10.098;2023-07-08T14:06:19;36.00;70.80
8611;DHT22;4343;53.648;10.098;2023-07-08T14:08:45;36.10;70.60
8611;DHT22;4343;53.648;10.098;2023-07-08T14:11:10;36.10;69.80
8611;DHT22;4343;53.648;10.098;2023-07-08T14:13:36;36.10;70.00
8611;DHT22;4343;53.648;10.098;2023-07-08T14:16:02;36.10;68.60
8611;DHT22;4343;53.648;10.098;2023-07-08T14:18:31;36.10;68.90
8611;DHT22;4343;53.648;10.098;2023-07-08T14:20:56;36.10;68.20
8611;DHT22;4343;53.648;10.098;2023-07-08T14:23:23;36.00;68.40
8611;DHT22;4343;53.648;10.098;2023-07-08T14:25:49;35.90;68.20
8611;DHT22;4343;53.648;10.098;2023-07-08T14:28:14;35.80;67.60
8611;DHT22;4343;53.648;10.098;2023-07-08T14:30:44;35.70;68.10
8611;DHT22;4343;53.648;10.098;2023-07-08T14:33:11;35.50;68.60
8611;DHT22;4343;53.648;10.098;2023-07-08T14:35:37;35.30;66.80
8611;DHT22;4343;53.648;10.098;2023-07-08T14:38:03;35.10;67.20
8611;DHT22;4343;53.648;10.098;2023-07-08T14:40:36;34.80;67.60
8611;DHT22;4343;53.648;10.098;2023-07-08T14:43:14;34.60;68.50
8611;DHT22;4343;53.648;10.098;2023-07-08T14:45:43;34.30;68.80
8611;DHT22;4343;53.648;10.098;2023-07-08T14:48:12;34.00;69.60
8611;DHT22;4343;53.648;10.098;2023-07-08T14:50:38;33.80;69.80
8611;DHT22;4343;53.648;10.098;2023-07-08T14:53:04;33.50;70.20
8611;DHT22;4343;53.648;10.098;2023-07-08T14:55:29;33.30;71.50
8611;DHT22;4343;53.648;10.098;2023-07-08T14:57:55;33.00;71.80
8611;DHT22;4343;53.648;10.098;2023-07-08T15:00:22;32.70;71.00
8611;DHT22;4343;53.648;10.098;2023-07-08T15:02:49;32.50;71.40
8611;DHT22;4343;53.648;10.098;2023-07-08T15:05:20;32.20;71.20
8611;DHT22;4343;53.648;10.098;2023-07-08T15:07:54;32.00;71.70
8611;DHT22;4343;53.648;10.098;2023-07-08T15:10:26;31.70;71.90
8611;DHT22;4343;53.648;10.098;2023-07-08T15:12:53;31.50;71.90
8611;DHT22;4343;53.648;10.098;2023-07-08T15:15:27;31.30;72.00
8611;DHT22;4343;53.648;10.098;2023-07-08T15:17:53;31.10;72.40
8611;DHT22;4343;53.648;10.098;2023-07-08T15:20:18;30.90;72.80
8611;DHT22;4343;53.648;10.098;2023-07-08T15:22:44;30.70;73.00
8611;DHT22;4343;53.648;10.098;2023-07-08T15:25:12;30.60;73.60
8611;DHT22;4343;53.648;10.098;2023-07-08T15:27:39;30.50;74.30
8611;DHT22;4343;53.648;10.098;2023-07-08T15:30:18;30.30;74.50
8611;DHT22;4343;53.648;10.098;2023-07-08T15:32:45;30.10;74.70
8611;DHT22;4343;53.648;10.098;2023-07-08T15:35:18;30.00;77.90
8611;DHT22;4343;53.648;10.098;2023-07-08T15:37:45;29.90;80.40
8611;DHT22;4343;53.648;10.098;2023-07-08T15:40:15;29.80;82.90
8611;DHT22;4343;53.648;10.098;2023-07-08T15:42:42;29.70;84.90
8611;DHT22;4343;53.648;10.098;2023-07-08T15:45:29;29.50;85.30
8611;DHT22;4343;53.648;10.098;2023-07-08T15:47:55;29.40;86.00
8611;DHT22;4343;53.648;10.098;2023-07-08T15:50:23;29.40;86.70
8611;DHT22;4343;53.648;10.098;2023-07-08T15:52:50;29.20;87.40
8611;DHT22;4343;53.648;10.098;2023-07-08T15:57:53;29.00;89.40
8611;DHT22;4343;53.648;10.098;2023-07-08T16:00:26;29.00;89.50
8611;DHT22;4343;53.648;10.098;2023-07-08T16:02:55;28.90;89.80
8611;DHT22;4343;53.648;10.098;2023-07-08T16:05:21;28.80;90.20
8611;DHT22;4343;53.648;10.098;2023-07-08T16:07:49;28.80;90.50
8611;DHT22;4343;53.648;10.098;2023-07-08T16:10:15;28.60;90.60
8611;DHT22;4343;53.648;10.098;2023-07-08T16:12:41;28.50;90.50
8611;DHT22;4343;53.648;10.098;2023-07-08T16:15:16;28.50;90.40
8611;DHT22;4343;53.648;10.098;2023-07-08T16:17:43;28.30;90.30
8611;DHT22;4343;53.648;10.098;2023-07-08T16:20:20;28.30;90.40
8611;DHT22;4343;53.648;10.098;2023-07-08T16:22:46;28.20;90.40
8611;DHT22;4343;53.648;10.098;2023-07-08T16:25:17;28.10;90.40
8611;DHT22;4343;53.648;10.098;2023-07-08T16:27:45;28.00;90.70
8611;DHT22;4343;53.648;10.098;2023-07-08T16:30:16;27.90;90.80
8611;DHT22;4343;53.648;10.098;2023-07-08T16:32:43;27.90;91.00
8611;DHT22;4343;53.648;10.098;2023-07-08T16:35:14;27.80;91.10
8611;DHT22;4343;53.648;10.098;2023-07-08T16:37:40;27.70;91.00
8611;DHT22;4343;53.648;10.098;2023-07-08T16:40:16;27.60;90.90
8611;DHT22;4343;53.648;10.098;2023-07-08T16:42:44;27.60;91.00
8611;DHT22;4343;53.648;10.098;2023-07-08T16:45:11;27.60;91.50
8611;DHT22;4343;53.648;10.098;2023-07-08T16:47:37;27.50;91.70
8611;DHT22;4343;53.648;10.098;2023-07-08T16:50:03;27.50;91.80
8611;DHT22;4343;53.648;10.098;2023-07-08T16:52:30;27.40;91.80
8611;DHT22;4343;53.648;10.098;2023-07-08T16:54:55;27.30;91.80
8611;DHT22;4343;53.648;10.098;2023-07-08T16:57:21;27.30;92.00